createdAt,value
2022-11-23T00:00:05.743Z,98205.31
2022-11-23T00:02:38.272Z,98196.78
2022-11-23T00:05:10.539Z,98198.59
2022-11-23T00:07:42.272Z,98206.56
2022-11-23T00:10:13.957Z,98196.31
2022-11-23T00:12:45.962Z,98196.31
2022-11-23T00:15:17.563Z,98199.06
2022-11-23T00:17:49.220Z,98195.63
2022-11-23T00:20:20.912Z,98190.56
2022-11-23T00:22:52.662Z,98194.97
2022-11-23T00:25:25.424Z,98188.25
2022-11-23T00:27:57.160Z,98185.81
2022-11-23T00:30:34.469Z,98190.06
2022-11-23T00:33:06.236Z,98196.41
2022-11-23T00:35:37.883Z,98191.66
2022-11-23T00:38:09.819Z,98191.66
2022-11-23T00:40:41.619Z,98185.75
2022-11-23T00:43:13.233Z,98180.53
2022-11-23T00:45:49.484Z,98183.16
2022-11-23T00:48:22.105Z,98178.09
2022-11-23T00:50:53.734Z,98176.47
2022-11-23T00:53:25.366Z,98174.00
2022-11-23T00:55:57.819Z,98180.34
2022-11-23T00:58:29.783Z,98183.56
2022-11-23T01:01:10.464Z,98187.19
2022-11-23T01:03:45.912Z,98186.50
2022-11-23T01:06:23.991Z,98186.50
2022-11-23T01:09:05.957Z,98188.97
2022-11-23T01:11:39.157Z,98186.19
2022-11-23T01:14:13.208Z,98195.31
2022-11-23T01:16:46.094Z,98196.63
2022-11-23T01:19:20.248Z,98191.25
2022-11-23T01:21:54.395Z,98194.69
2022-11-23T01:24:29.296Z,98192.56
2022-11-23T01:27:00.920Z,98193.84
2022-11-23T01:29:33.811Z,98199.56
2022-11-23T01:32:08.517Z,98195.84
2022-11-23T01:34:43.238Z,98197.47
2022-11-23T01:37:15.910Z,98204.47
2022-11-23T01:39:49.448Z,98199.25
2022-11-23T01:42:21.169Z,98199.09
2022-11-23T01:44:53.356Z,98208.25
2022-11-23T01:47:25.284Z,98214.13
2022-11-23T01:49:57.092Z,98214.78
2022-11-23T01:52:28.682Z,98216.28
2022-11-23T01:55:05.277Z,98215.59
2022-11-23T01:57:44.236Z,98228.53
2022-11-23T02:00:16.694Z,98229.19
2022-11-23T02:02:55.689Z,98232.59
2022-11-23T02:05:37.089Z,98229.03
2022-11-23T02:08:11.904Z,98229.03
2022-11-23T02:10:43.646Z,98223.44
2022-11-23T02:13:16.116Z,98225.09
2022-11-23T02:15:47.750Z,98222.31
2022-11-23T02:18:25.013Z,98222.00
2022-11-23T02:20:59.387Z,98220.22
2022-11-23T02:23:52.913Z,98219.09
2022-11-23T02:26:33.430Z,98223.34
2022-11-23T02:29:40.654Z,98221.72
2022-11-23T02:32:12.687Z,98222.34
2022-11-23T02:34:44.278Z,98225.44
2022-11-23T02:37:16.845Z,98220.53
2022-11-23T02:39:50.553Z,98226.72
2022-11-23T02:45:18.959Z,98221.81
2022-11-23T02:50:42.427Z,98226.88
2022-11-23T02:53:14.501Z,98224.13
2022-11-23T02:55:46.185Z,98227.19
2022-11-23T02:58:17.848Z,98231.75
2022-11-23T03:00:49.555Z,98230.94
2022-11-23T03:03:24.548Z,98230.94
2022-11-23T03:05:56.149Z,98227.19
2022-11-23T03:08:28.713Z,98222.78
2022-11-23T03:11:02.123Z,98228.81
2022-11-23T03:13:35.166Z,98225.38
2022-11-23T03:16:06.993Z,98217.53
2022-11-23T03:18:38.703Z,98220.97
2022-11-23T03:21:12.747Z,98221.66
2022-11-23T03:23:47.056Z,98223.28
2022-11-23T03:26:21.957Z,98228.53
2022-11-23T03:29:06.128Z,98220.69
2022-11-23T03:31:40.595Z,98222.47
2022-11-23T03:34:15.853Z,98227.84
2022-11-23T03:36:49.454Z,98231.75
2022-11-23T03:39:21.442Z,98238.78
2022-11-23T03:42:21.925Z,98231.59
2022-11-23T03:44:53.729Z,98236.97
2022-11-23T03:47:25.310Z,98233.41
2022-11-23T03:49:57.104Z,98237.66
2022-11-23T03:52:28.717Z,98234.88
2022-11-23T03:55:00.584Z,98232.94
2022-11-23T03:57:32.554Z,98230.16
2022-11-23T04:00:08.574Z,98229.34
2022-11-23T04:02:44.837Z,98226.06
2022-11-23T04:05:36.385Z,98222.13
2022-11-23T04:08:23.206Z,98229.50
2022-11-23T04:10:59.492Z,98226.72
2022-11-23T04:13:42.693Z,98224.63
2022-11-23T04:16:14.434Z,98225.13
2022-11-23T04:18:46.628Z,98217.28
2022-11-23T04:21:21.376Z,98225.63
2022-11-23T04:23:53.092Z,98225.16
2022-11-23T04:26:24.976Z,98226.94
2022-11-23T04:28:56.647Z,98224.19
2022-11-23T04:31:28.880Z,98235.47
2022-11-23T04:34:12.179Z,98237.22
2022-11-23T04:36:44.359Z,98234.44
2022-11-23T04:39:16.645Z,98230.81
2022-11-23T04:42:07.566Z,98239.78
2022-11-23T04:44:39.426Z,98240.09
2022-11-23T04:47:12.619Z,98236.66
2022-11-23T04:49:44.484Z,98241.59
2022-11-23T04:52:16.426Z,98237.38
2022-11-23T04:54:52.480Z,98233.63
2022-11-23T04:57:24.285Z,98236.91
2022-11-23T04:59:57.124Z,98236.59
2022-11-23T05:02:30.580Z,98243.97
2022-11-23T05:05:12.590Z,98249.03
2022-11-23T05:07:44.409Z,98246.06
2022-11-23T05:10:16.283Z,98254.72
2022-11-23T05:12:48.052Z,98253.22
2022-11-23T05:15:19.955Z,98254.50
2022-11-23T05:17:54.107Z,98246.00
2022-11-23T05:20:30.315Z,98254.50
2022-11-23T05:23:02.302Z,98253.22
2022-11-23T05:25:38.368Z,98253.06
2022-11-23T05:28:39.211Z,98255.34
2022-11-23T05:31:11.266Z,98258.50
2022-11-23T05:33:43.335Z,98270.56
2022-11-23T05:36:15.145Z,98259.28
2022-11-23T05:38:47.301Z,98259.97
2022-11-23T05:41:25.776Z,98257.19
2022-11-23T05:44:02.445Z,98259.66
2022-11-23T05:46:35.245Z,98258.66
2022-11-23T05:49:07.027Z,98258.66
2022-11-23T05:51:42.166Z,98252.47
2022-11-23T05:54:13.889Z,98251.16
2022-11-23T05:56:55.431Z,98250.31
2022-11-23T05:59:33.696Z,98258.31
2022-11-23T06:02:07.236Z,98245.09
2022-11-23T06:04:40.786Z,98243.97
2022-11-23T06:07:20.327Z,98256.84
2022-11-23T06:10:04.797Z,98254.53
2022-11-23T06:12:38.697Z,98259.13
2022-11-23T06:15:13.351Z,98261.53
2022-11-23T06:17:45.359Z,98256.31
2022-11-23T06:20:20.729Z,98259.75
2022-11-23T06:23:02.055Z,98258.94
2022-11-23T06:25:34.062Z,98270.22
2022-11-23T06:28:11.288Z,98269.09
2022-11-23T06:30:49.089Z,98264.84
2022-11-23T06:33:21.340Z,98264.38
2022-11-23T06:35:57.668Z,98271.09
2022-11-23T06:38:33.317Z,98276.00
2022-11-23T06:41:32.179Z,98274.53
2022-11-23T06:44:05.753Z,98280.41
2022-11-23T06:46:47.241Z,98272.25
2022-11-23T06:49:20.542Z,98280.09
2022-11-23T06:52:05.351Z,98278.44
2022-11-23T06:54:37.044Z,98283.69
2022-11-23T06:57:09.365Z,98278.44
2022-11-23T06:59:44.785Z,98278.78
2022-11-23T07:02:21.416Z,98284.97
2022-11-23T07:04:53.492Z,98283.34
2022-11-23T07:07:25.413Z,98288.72
2022-11-23T07:10:07.441Z,98285.28
2022-11-23T07:12:51.088Z,98294.59
2022-11-23T07:15:31.534Z,98295.25
2022-11-23T07:18:05.982Z,98301.31
2022-11-23T07:20:39.625Z,98305.28
2022-11-23T07:23:12.097Z,98307.56
2022-11-23T07:25:45.252Z,98303.16
2022-11-23T07:28:17.511Z,98309.06
2022-11-23T07:30:52.014Z,98296.13
2022-11-23T07:33:25.277Z,98311.81
2022-11-23T07:36:00.367Z,98313.75
2022-11-23T07:38:32.033Z,98311.47
2022-11-23T07:41:05.435Z,98315.19
2022-11-23T07:43:57.365Z,98315.53
2022-11-23T07:46:29.046Z,98318.78
2022-11-23T07:49:02.410Z,98323.03
2022-11-23T07:51:34.364Z,98322.59
2022-11-23T07:54:06.403Z,98326.00
2022-11-23T07:56:38.070Z,98319.81
2022-11-23T07:59:09.758Z,98321.16
2022-11-23T08:01:41.340Z,98321.66
2022-11-23T08:04:12.960Z,98329.03
2022-11-23T08:06:44.534Z,98318.63
2022-11-23T08:09:16.170Z,98320.47
2022-11-23T08:11:47.758Z,98325.22
2022-11-23T08:14:19.384Z,98318.69
2022-11-23T08:16:51.670Z,98320.00
2022-11-23T08:19:23.374Z,98312.53
2022-11-23T08:21:55.072Z,98314.47
2022-11-23T08:24:26.721Z,98312.88
2022-11-23T08:26:58.379Z,98307.00
2022-11-23T08:29:30.199Z,98315.88
2022-11-23T08:32:01.852Z,98314.25
2022-11-23T08:34:34.140Z,98317.88
2022-11-23T08:37:05.924Z,98304.13
2022-11-23T08:39:37.587Z,98305.78
2022-11-23T08:42:09.198Z,98300.50
2022-11-23T08:44:40.785Z,98305.75
2022-11-23T08:47:12.498Z,98315.13
2022-11-23T08:49:44.411Z,98305.63
2022-11-23T08:52:17.185Z,98306.28
2022-11-23T08:54:48.761Z,98312.81
2022-11-23T08:57:20.410Z,98314.75
2022-11-23T08:59:51.993Z,98311.13
2022-11-23T09:02:23.929Z,98315.41
2022-11-23T09:04:55.499Z,98307.56
2022-11-23T09:07:28.249Z,98314.47
2022-11-23T09:09:59.928Z,98315.63
2022-11-23T09:12:32.582Z,98311.53
2022-11-23T09:15:04.820Z,98313.19
2022-11-23T09:17:36.476Z,98313.63
2022-11-23T09:20:10.127Z,98316.75
2022-11-23T09:22:41.774Z,98314.56
2022-11-23T09:25:13.446Z,98318.19
2022-11-23T09:27:45.451Z,98324.72
2022-11-23T09:30:17.598Z,98319.66
2022-11-23T09:32:49.240Z,98315.41
2022-11-23T09:35:20.861Z,98318.84
2022-11-23T09:37:59.045Z,98314.41
2022-11-23T09:40:39.686Z,98307.31
2022-11-23T09:43:35.907Z,98304.97
2022-11-23T09:46:37.260Z,98302.13
2022-11-23T09:49:21.373Z,98306.53
2022-11-23T09:51:55.799Z,98304.03
2022-11-23T09:54:33.866Z,98300.38
2022-11-23T09:57:05.793Z,98302.91
2022-11-23T09:59:42.089Z,98300.34
2022-11-23T10:02:26.067Z,98313.97
2022-11-23T10:05:00.285Z,98300.34
2022-11-23T10:07:59.640Z,98298.00
2022-11-23T10:10:37.233Z,98287.06
2022-11-23T10:13:33.629Z,98290.97
2022-11-23T10:16:33.611Z,98291.31
2022-11-23T10:19:43.314Z,98285.94
2022-11-23T10:22:28.001Z,98282.44
2022-11-23T10:25:04.613Z,98280.84
2022-11-23T10:27:36.226Z,98278.19
2022-11-23T10:30:13.304Z,98278.75
2022-11-23T10:32:53.525Z,98279.03
2022-11-23T10:35:25.034Z,98275.22
2022-11-23T10:38:18.321Z,98275.22
2022-11-23T10:40:59.602Z,98265.53
2022-11-23T10:43:45.253Z,98270.59
2022-11-23T10:46:39.923Z,98257.88
2022-11-23T10:49:28.041Z,98254.34
2022-11-23T10:52:05.863Z,98255.88
2022-11-23T10:54:54.415Z,98255.88
2022-11-23T10:57:36.984Z,98260.50
2022-11-23T11:00:14.799Z,98257.53
2022-11-23T11:02:49.246Z,98259.81
2022-11-23T11:08:38.095Z,98250.06
2022-11-23T11:11:22.869Z,98255.94
2022-11-23T11:14:20.545Z,98250.91
2022-11-23T11:16:55.349Z,98248.94
2022-11-23T11:19:34.831Z,98254.59
2022-11-23T11:22:32.280Z,98247.97
2022-11-23T11:25:06.396Z,98247.38
2022-11-23T11:27:38.044Z,98243.69
2022-11-23T11:30:22.533Z,98249.31
2022-11-23T11:33:00.029Z,98243.69
2022-11-23T11:35:37.602Z,98245.03
2022-11-23T11:38:29.766Z,98251.13
2022-11-23T11:41:08.680Z,98240.72
2022-11-23T11:43:59.220Z,98241.81
2022-11-23T11:46:40.394Z,98253.78
2022-11-23T11:49:18.401Z,98244.47
2022-11-23T11:52:00.124Z,98252.34
2022-11-23T11:54:40.289Z,98256.59
2022-11-23T11:57:44.274Z,98251.69
2022-11-23T12:00:19.815Z,98253.56
2022-11-23T12:03:10.659Z,98251.41
2022-11-23T12:05:42.374Z,98253.38
2022-11-23T12:08:19.963Z,98251.22
2022-11-23T12:10:59.163Z,98246.97
2022-11-23T12:13:36.383Z,98245.97
2022-11-23T12:16:16.286Z,98251.56
2022-11-23T12:19:09.441Z,98247.25
2022-11-23T12:21:41.077Z,98244.56
2022-11-23T12:24:38.663Z,98238.88
2022-11-23T12:27:46.589Z,98238.44
2022-11-23T12:30:26.134Z,98235.28
2022-11-23T12:33:06.894Z,98234.00
2022-11-23T12:35:56.563Z,98233.84
2022-11-23T12:38:52.966Z,98234.63
2022-11-23T12:41:24.830Z,98238.56
2022-11-23T12:44:08.557Z,98248.53
2022-11-23T12:46:46.136Z,98246.72
2022-11-23T12:49:52.052Z,98247.72
2022-11-23T12:52:31.060Z,98249.19
2022-11-23T12:55:37.679Z,98241.75
2022-11-23T12:58:25.793Z,98241.00
2022-11-23T13:01:10.900Z,98230.63
2022-11-23T13:04:00.937Z,98238.41
2022-11-23T13:07:27.422Z,98231.81
2022-11-23T13:10:10.428Z,98234.06
2022-11-23T13:13:23.341Z,98231.72
2022-11-23T13:16:08.776Z,98233.38
2022-11-23T13:19:04.710Z,98235.00
2022-11-23T13:21:42.236Z,98230.91
2022-11-23T13:24:28.142Z,98226.84
2022-11-23T13:27:14.912Z,98236.38
2022-11-23T13:29:58.611Z,98237.63
2022-11-23T13:32:39.281Z,98237.69
2022-11-23T13:35:16.602Z,98236.56
2022-11-23T13:37:57.155Z,98232.84
2022-11-23T13:40:36.678Z,98224.97
2022-11-23T13:43:30.298Z,98233.00
2022-11-23T13:46:27.333Z,98225.50
2022-11-23T13:49:00.669Z,98221.22
2022-11-23T13:51:34.943Z,98215.31
2022-11-23T13:54:21.249Z,98218.78
2022-11-23T13:57:05.619Z,98225.53
2022-11-23T13:59:37.283Z,98228.00
2022-11-23T14:02:09.140Z,98231.25
2022-11-23T14:04:47.017Z,98223.03
2022-11-23T14:07:43.396Z,98242.03
2022-11-23T14:10:22.946Z,98234.38
2022-11-23T14:12:57.573Z,98237.16
2022-11-23T14:15:32.979Z,98235.88
2022-11-23T14:18:18.241Z,98237.84
2022-11-23T14:21:07.697Z,98241.47
2022-11-23T14:24:02.295Z,98241.06
2022-11-23T14:27:12.330Z,98234.41
2022-11-23T14:30:30.204Z,98238.38
2022-11-23T14:33:33.672Z,98230.50
2022-11-23T14:36:42.768Z,98236.50
2022-11-23T14:39:20.294Z,98248.66
2022-11-23T14:41:59.529Z,98251.94
2022-11-23T14:44:38.369Z,98245.50
2022-11-23T14:47:11.334Z,98246.34
2022-11-23T14:49:51.092Z,98251.28
2022-11-23T14:52:26.584Z,98241.44
2022-11-23T14:55:05.267Z,98249.47
2022-11-23T14:57:46.620Z,98240.63
2022-11-23T15:00:29.479Z,98241.44
2022-11-23T15:03:48.275Z,98238.16
2022-11-23T15:06:12.871Z,98240.47
2022-11-23T15:08:54.486Z,98235.53
2022-11-23T15:11:28.941Z,98234.59
2022-11-23T15:14:03.394Z,98232.66
2022-11-23T15:16:42.554Z,98244.16
2022-11-23T15:19:42.789Z,98241.69
2022-11-23T15:22:19.911Z,98234.00
2022-11-23T15:24:51.877Z,98233.66
2022-11-23T15:27:31.204Z,98243.81
2022-11-23T15:30:03.147Z,98243.47
2022-11-23T15:32:35.476Z,98245.75
2022-11-23T15:35:13.729Z,98241.78
2022-11-23T15:37:49.880Z,98239.81
2022-11-23T15:40:23.695Z,98246.03
2022-11-23T15:42:55.845Z,98249.66
2022-11-23T15:45:39.345Z,98249.47
2022-11-23T15:48:32.979Z,98246.41
2022-11-23T15:51:08.615Z,98242.28
2022-11-23T15:53:51.394Z,98242.66
2022-11-23T15:56:25.809Z,98240.03
2022-11-23T15:59:00.753Z,98244.47
2022-11-23T16:01:32.523Z,98248.06
2022-11-23T16:04:28.838Z,98253.31
2022-11-23T16:07:15.664Z,98250.69
2022-11-23T16:10:06.005Z,98247.25
2022-11-23T16:12:51.666Z,98247.59
2022-11-23T16:15:40.772Z,98240.88
2022-11-23T16:18:18.483Z,98253.19
2022-11-23T16:21:02.305Z,98252.38
2022-11-23T16:23:45.806Z,98249.56
2022-11-23T16:26:18.118Z,98256.28
2022-11-23T16:28:53.996Z,98258.56
2022-11-23T16:31:31.557Z,98258.56
2022-11-23T16:34:10.062Z,98258.72
2022-11-23T16:36:41.610Z,98257.91
2022-11-23T16:39:13.268Z,98262.34
2022-11-23T16:41:44.942Z,98262.19
2022-11-23T16:44:20.221Z,98267.41
2022-11-23T16:46:52.343Z,98261.19
2022-11-23T16:49:24.228Z,98267.25
2022-11-23T16:51:57.474Z,98264.47
2022-11-23T16:54:29.422Z,98263.66
2022-11-23T16:57:01.313Z,98274.97
2022-11-23T16:59:34.328Z,98265.47
2022-11-23T17:02:14.390Z,98270.22
2022-11-23T17:04:46.226Z,98273.34
2022-11-23T17:07:17.987Z,98277.81
2022-11-23T17:09:49.621Z,98269.16
2022-11-23T17:12:21.286Z,98273.94
2022-11-23T17:14:52.959Z,98273.66
2022-11-23T17:17:24.615Z,98269.22
2022-11-23T17:20:01.006Z,98269.59
2022-11-23T17:22:34.301Z,98269.91
2022-11-23T17:25:11.681Z,98268.59
2022-11-23T17:27:49.127Z,98268.75
2022-11-23T17:30:22.432Z,98271.91
2022-11-23T17:32:54.580Z,98279.91
2022-11-23T17:35:26.694Z,98275.03
2022-11-23T17:37:58.321Z,98276.81
2022-11-23T17:40:33.229Z,98281.56
2022-11-23T17:43:04.815Z,98276.81
2022-11-23T17:45:36.632Z,98279.28
2022-11-23T17:48:11.886Z,98275.84
2022-11-23T17:50:43.676Z,98277.97
2022-11-23T17:53:15.342Z,98280.44
2022-11-23T17:55:47.389Z,98277.50
2022-11-23T17:58:18.963Z,98280.78
2022-11-23T18:00:50.741Z,98276.50
2022-11-23T18:03:24.685Z,98278.16
2022-11-23T18:05:56.382Z,98279.28
2022-11-23T18:08:28.466Z,98276.81
2022-11-23T18:11:02.714Z,98278.28
2022-11-23T18:13:34.407Z,98285.81
2022-11-23T18:16:07.086Z,98280.75
2022-11-23T18:18:38.705Z,98276.97
2022-11-23T18:21:10.936Z,98280.72
2022-11-23T18:23:42.759Z,98280.72
2022-11-23T18:26:20.754Z,98277.94
2022-11-23T18:28:52.746Z,98292.69
2022-11-23T18:31:24.537Z,98294.16
2022-11-23T18:33:56.310Z,98297.75
2022-11-23T18:36:29.019Z,98306.75
2022-11-23T18:39:01.831Z,98303.81
2022-11-23T18:41:33.485Z,98305.00
2022-11-23T18:44:05.065Z,98306.44
2022-11-23T18:46:36.692Z,98302.38
2022-11-23T18:49:09.821Z,98302.38
2022-11-23T18:51:44.550Z,98309.25
2022-11-23T18:54:16.181Z,98310.88
2022-11-23T18:56:48.167Z,98305.00
2022-11-23T18:59:49.869Z,98306.97
2022-11-23T19:02:13.217Z,98310.09
2022-11-23T19:04:46.963Z,98302.53
2022-11-23T19:07:25.128Z,98305.00
2022-11-23T19:09:58.422Z,98311.53
2022-11-23T19:12:30.968Z,98318.75
2022-11-23T19:15:02.709Z,98316.16
2022-11-23T19:17:41.482Z,98321.22
2022-11-23T19:20:13.827Z,98323.66
2022-11-23T19:22:45.449Z,98315.81
2022-11-23T19:25:18.763Z,98316.31
2022-11-23T19:27:51.519Z,98317.13
2022-11-23T19:30:23.244Z,98321.03
2022-11-23T19:32:54.866Z,98323.84
2022-11-23T19:35:26.507Z,98332.19
2022-11-23T19:37:58.323Z,98323.34
2022-11-23T19:40:30.018Z,98331.06
2022-11-23T19:43:01.786Z,98332.19
2022-11-23T19:45:33.452Z,98333.50
2022-11-23T19:48:05.260Z,98335.31
2022-11-23T19:50:37.005Z,98327.59
2022-11-23T19:53:13.243Z,98324.00
2022-11-23T19:55:45.027Z,98322.69
2022-11-23T19:58:17.131Z,98324.81
2022-11-23T20:00:48.721Z,98320.25
2022-11-23T20:03:20.466Z,98321.06
2022-11-23T20:06:00.107Z,98322.84
2022-11-23T20:08:31.763Z,98324.63
2022-11-23T20:11:12.656Z,98323.66
2022-11-23T20:13:44.942Z,98325.94
2022-11-23T20:16:18.849Z,98324.94
2022-11-23T20:18:57.140Z,98323.34
2022-11-23T20:21:30.143Z,98328.06
2022-11-23T20:24:12.832Z,98331.03
2022-11-23T20:26:44.766Z,98327.88
2022-11-23T20:29:17.133Z,98332.16
2022-11-23T20:31:51.073Z,98336.75
2022-11-23T20:34:26.093Z,98337.72
2022-11-23T20:37:00.122Z,98340.03
2022-11-23T20:39:31.966Z,98341.19
2022-11-23T20:42:03.709Z,98344.28
2022-11-23T20:44:37.323Z,98347.06
2022-11-23T20:47:09.418Z,98345.97
2022-11-23T20:49:41.288Z,98347.63
2022-11-23T20:52:13.016Z,98345.78
2022-11-23T20:54:46.366Z,98357.09
2022-11-23T20:57:17.988Z,98355.28
2022-11-23T20:59:50.307Z,98358.56
2022-11-23T21:02:22.018Z,98358.41
2022-11-23T21:04:53.894Z,98366.59
2022-11-23T21:07:25.518Z,98367.75
2022-11-23T21:10:00.289Z,98372.66
2022-11-23T21:12:50.858Z,98373.97
2022-11-23T21:15:22.425Z,98377.09
2022-11-23T21:17:54.038Z,98378.38
2022-11-23T21:20:26.641Z,98378.91
2022-11-23T21:22:58.941Z,98391.66
2022-11-23T21:25:31.218Z,98392.00
2022-11-23T21:28:03.376Z,98398.06
2022-11-23T21:30:35.984Z,98399.19
2022-11-23T21:33:07.861Z,98402.50
2022-11-23T21:35:39.482Z,98408.56
2022-11-23T21:38:11.074Z,98408.22
2022-11-23T21:40:42.778Z,98416.41
2022-11-23T21:43:15.691Z,98424.09
2022-11-23T21:45:47.355Z,98416.75
2022-11-23T21:48:19.019Z,98419.38
2022-11-23T21:51:01.072Z,98423.28
2022-11-23T21:53:33.494Z,98419.53
2022-11-23T21:56:14.096Z,98427.56
2022-11-23T21:58:46.378Z,98429.84
2022-11-23T22:01:24.033Z,98424.25
2022-11-23T22:04:01.377Z,98427.72
2022-11-23T22:06:32.956Z,98429.19
2022-11-23T22:09:06.775Z,98422.63
2022-11-23T22:11:41.200Z,98431.00
2022-11-23T22:14:17.083Z,98427.22
2022-11-23T22:16:50.064Z,98430.19
2022-11-23T22:19:21.724Z,98433.28
2022-11-23T22:21:55.959Z,98440.66
2022-11-23T22:24:27.579Z,98439.84
2022-11-23T22:26:59.240Z,98442.63
2022-11-23T22:29:30.839Z,98446.06
2022-11-23T22:32:02.590Z,98455.41
2022-11-23T22:34:35.633Z,98457.22
2022-11-23T22:37:10.785Z,98456.25
2022-11-23T22:39:42.845Z,98450.03
2022-11-23T22:42:15.097Z,98460.16
2022-11-23T22:44:46.681Z,98457.72
2022-11-23T22:47:18.619Z,98464.28
2022-11-23T22:49:50.556Z,98471.00
2022-11-23T22:52:22.271Z,98464.44
2022-11-23T22:54:54.182Z,98469.34
2022-11-23T22:57:25.764Z,98470.66
2022-11-23T22:59:57.374Z,98472.63
2022-11-23T23:02:29.215Z,98466.06
2022-11-23T23:05:00.977Z,98473.91
2022-11-23T23:07:32.595Z,98480.81
2022-11-23T23:10:04.455Z,98486.22
2022-11-23T23:12:36.099Z,98484.75
2022-11-23T23:15:08.204Z,98488.03
2022-11-23T23:17:39.988Z,98491.16
2022-11-23T23:20:11.987Z,98491.63
2022-11-23T23:22:44.077Z,98489.00
2022-11-23T23:25:15.780Z,98495.38
2022-11-23T23:27:50.352Z,98500.16
2022-11-23T23:30:22.087Z,98501.13
2022-11-23T23:32:54.488Z,98506.22
2022-11-23T23:35:26.334Z,98502.09
2022-11-23T23:37:57.954Z,98501.94
2022-11-23T23:40:32.210Z,98504.22
2022-11-23T23:43:07.677Z,98504.88
2022-11-23T23:45:39.495Z,98501.94
2022-11-23T23:48:11.211Z,98514.56
2022-11-23T23:50:42.828Z,98517.88
2022-11-23T23:53:14.418Z,98507.38
2022-11-23T23:56:02.092Z,98521.94
2022-11-23T23:58:33.960Z,98527.84
